createdAt,value
2018-06-19T00:01:40.000Z,30.2
2018-06-19T00:03:40.000Z,30.2
2018-06-19T00:05:40.000Z,30.2
2018-06-19T00:06:40.000Z,30.2
2018-06-19T00:08:40.000Z,30.2
2018-06-19T00:09:40.000Z,30.1
2018-06-19T00:10:40.000Z,30.1
2018-06-19T00:12:40.000Z,30.2
2018-06-19T00:13:40.000Z,30.2
2018-06-19T00:14:40.000Z,30.2
2018-06-19T00:16:40.000Z,30.3
2018-06-19T00:18:40.000Z,30.3
2018-06-19T00:20:40.000Z,30.3
2018-06-19T00:21:40.000Z,30.3
2018-06-19T00:22:40.000Z,30.3
2018-06-19T00:24:25.000Z,30.4
2018-06-19T00:25:40.000Z,30.3
2018-06-19T00:27:40.000Z,30.3
2018-06-19T00:28:40.000Z,30.3
2018-06-19T00:30:40.000Z,30.3
2018-06-19T00:31:40.000Z,30.3
2018-06-19T00:32:40.000Z,30.4
2018-06-19T00:34:40.000Z,30.3
2018-06-19T00:36:40.000Z,30.2
2018-06-19T00:37:40.000Z,30.2
2018-06-19T00:39:40.000Z,30.2
2018-06-19T00:40:40.000Z,30.3
2018-06-19T00:42:40.000Z,30.3
2018-06-19T00:43:40.000Z,30.3
2018-06-19T00:45:40.000Z,30.4
2018-06-19T00:47:40.000Z,30.4
2018-06-19T00:48:40.000Z,30.4
2018-06-19T00:49:40.000Z,30.4
2018-06-19T00:50:40.000Z,30.4
2018-06-19T00:52:40.000Z,30.4
2018-06-19T00:54:40.000Z,30.4
2018-06-19T00:55:40.000Z,30.4
2018-06-19T00:56:40.000Z,30.4
2018-06-19T00:57:40.000Z,30.4
2018-06-19T00:59:40.000Z,30.4
2018-06-19T01:00:40.000Z,30.4
2018-06-19T01:01:40.000Z,30.4
2018-06-19T01:03:40.000Z,30.4
2018-06-19T01:04:40.000Z,30.4
2018-06-19T01:06:40.000Z,30.4
2018-06-19T01:08:40.000Z,30.3
2018-06-19T01:10:40.000Z,30.3
2018-06-19T01:12:40.000Z,30.2
2018-06-19T01:14:40.000Z,30.1
2018-06-19T01:16:40.000Z,30.1
2018-06-19T01:18:40.000Z,30.1
2018-06-19T01:19:40.000Z,30.1
2018-06-19T01:21:40.000Z,30.1
2018-06-19T01:22:40.000Z,30.1
2018-06-19T01:24:40.000Z,30.2
2018-06-19T01:25:40.000Z,30.2
2018-06-19T01:26:40.000Z,30.3
2018-06-19T01:28:40.000Z,30.3
2018-06-19T01:30:40.000Z,30.3
2018-06-19T01:31:40.000Z,30.3
2018-06-19T01:33:24.000Z,30.3
2018-06-19T01:34:40.000Z,30.3
2018-06-19T01:35:40.000Z,30.3
2018-06-19T01:36:40.000Z,30.3
2018-06-19T01:38:40.000Z,30.3
2018-06-19T01:40:40.000Z,30.2
2018-06-19T01:42:40.000Z,30.2
2018-06-19T01:43:40.000Z,30.1
2018-06-19T01:45:40.000Z,30.2
2018-06-19T01:47:40.000Z,30.1
2018-06-19T01:48:40.000Z,30.1
2018-06-19T01:50:40.000Z,30.2
2018-06-19T01:52:40.000Z,30.2
2018-06-19T01:54:40.000Z,30.1
2018-06-19T01:55:40.000Z,30.2
2018-06-19T01:57:40.000Z,30.2
2018-06-19T01:59:40.000Z,30.2
2018-06-19T02:01:40.000Z,30.2
2018-06-19T02:03:40.000Z,30.2
2018-06-19T02:04:40.000Z,30.2
2018-06-19T02:05:40.000Z,30.2
2018-06-19T02:06:40.000Z,30.3
2018-06-19T02:08:40.000Z,30.3
2018-06-19T02:10:40.000Z,30.3
2018-06-19T02:11:40.000Z,30.2
2018-06-19T02:13:24.000Z,30.3
2018-06-19T02:14:40.000Z,30.2
2018-06-19T02:15:40.000Z,30.2
2018-06-19T02:17:40.000Z,30.3
2018-06-19T02:18:40.000Z,30.3
2018-06-19T02:20:40.000Z,30.3
2018-06-19T02:22:40.000Z,30.3
2018-06-19T02:23:40.000Z,30.2
2018-06-19T02:25:40.000Z,30.2
2018-06-19T02:27:40.000Z,30.2
2018-06-19T02:29:40.000Z,30.2
2018-06-19T02:30:40.000Z,30.2
2018-06-19T02:32:40.000Z,30.1
2018-06-19T02:33:40.000Z,30.1
2018-06-19T02:35:40.000Z,30.2
2018-06-19T02:37:24.000Z,30.2
2018-06-19T02:38:40.000Z,30.1
2018-06-19T02:39:40.000Z,30.1
2018-06-19T02:40:40.000Z,30.2
2018-06-19T02:42:40.000Z,30.3
2018-06-19T02:44:40.000Z,30.2
2018-06-19T02:46:40.000Z,30.1
2018-06-19T02:48:24.000Z,30.1
2018-06-19T02:49:40.000Z,30.1
2018-06-19T02:50:40.000Z,30.1
2018-06-19T02:52:40.000Z,30.1
2018-06-19T02:54:24.000Z,30.1
2018-06-19T02:55:40.000Z,30.1
2018-06-19T02:57:40.000Z,30.1
2018-06-19T02:58:40.000Z,30.1
2018-06-19T03:00:40.000Z,30.1
2018-06-19T03:01:40.000Z,30.1
2018-06-19T03:03:40.000Z,30.1
2018-06-19T03:05:40.000Z,30.1
2018-06-19T03:07:40.000Z,30
2018-06-19T03:08:40.000Z,30
2018-06-19T03:10:40.000Z,29.9
2018-06-19T03:12:40.000Z,29.9
2018-06-19T03:14:40.000Z,29.9
2018-06-19T03:17:40.000Z,30
2018-06-19T03:18:40.000Z,30
2018-06-19T03:20:40.000Z,30
2018-06-19T03:21:40.000Z,30
2018-06-19T03:22:40.000Z,30.1
2018-06-19T03:24:40.000Z,30.1
2018-06-19T03:26:40.000Z,30.1
2018-06-19T03:28:40.000Z,30.1
2018-06-19T03:29:40.000Z,30
2018-06-19T03:31:40.000Z,30
2018-06-19T03:32:40.000Z,30.1
2018-06-19T03:33:40.000Z,30.1
2018-06-19T03:35:40.000Z,30.2
2018-06-19T03:37:40.000Z,30.2
2018-06-19T03:39:40.000Z,30.1
2018-06-19T03:40:40.000Z,30.1
2018-06-19T03:42:40.000Z,30.2
2018-06-19T03:43:40.000Z,30.2
2018-06-19T03:45:40.000Z,30.1
2018-06-19T03:47:40.000Z,30
2018-06-19T03:48:40.000Z,30
2018-06-19T03:49:40.000Z,30
2018-06-19T03:50:40.000Z,30
2018-06-19T03:51:40.000Z,30.1
2018-06-19T03:53:40.000Z,30.2
2018-06-19T03:55:40.000Z,30.2
2018-06-19T03:57:40.000Z,30.1
2018-06-19T03:59:40.000Z,30.1
2018-06-19T04:01:40.000Z,30
2018-06-19T04:02:40.000Z,30
2018-06-19T04:03:40.000Z,30.1
2018-06-19T04:04:40.000Z,30.2
2018-06-19T04:05:40.000Z,30.2
2018-06-19T04:07:40.000Z,30.3
2018-06-19T04:08:40.000Z,30.2
2018-06-19T04:10:40.000Z,30.2
2018-06-19T04:11:40.000Z,30.2
2018-06-19T04:13:40.000Z,30.2
2018-06-19T04:14:40.000Z,30.2
2018-06-19T04:15:40.000Z,30.3
2018-06-19T04:17:40.000Z,30.4
2018-06-19T04:18:40.000Z,30.4
2018-06-19T04:19:40.000Z,30.4
2018-06-19T04:21:40.000Z,30.1
2018-06-19T04:22:40.000Z,29.9
2018-06-19T04:23:40.000Z,29.7
2018-06-19T04:24:40.000Z,29.6
2018-06-19T04:26:40.000Z,29.3
2018-06-19T04:28:40.000Z,28.9
2018-06-19T04:30:25.000Z,28.7
2018-06-19T04:31:40.000Z,28.5
2018-06-19T04:32:40.000Z,28.5
2018-06-19T04:34:40.000Z,28.3
2018-06-19T04:36:40.000Z,28.2
2018-06-19T04:38:40.000Z,28
2018-06-19T04:40:40.000Z,27.8
2018-06-19T04:42:40.000Z,27.6
2018-06-19T04:44:40.000Z,27.5
2018-06-19T04:45:40.000Z,27.5
2018-06-19T04:47:40.000Z,27.6
2018-06-19T04:48:40.000Z,27.6
2018-06-19T04:50:40.000Z,27.7
2018-06-19T04:51:40.000Z,27.7
2018-06-19T04:52:40.000Z,27.8
2018-06-19T04:54:40.000Z,27.7
2018-06-19T04:56:40.000Z,27.7
2018-06-19T04:58:40.000Z,27.7
2018-06-19T04:59:40.000Z,27.7
2018-06-19T05:01:40.000Z,27.8
2018-06-19T05:03:40.000Z,27.8
2018-06-19T05:05:40.000Z,27.9
2018-06-19T05:07:25.000Z,27.9
2018-06-19T05:08:40.000Z,27.9
2018-06-19T05:10:40.000Z,27.9
2018-06-19T05:11:40.000Z,27.9
2018-06-19T05:12:40.000Z,28
2018-06-19T05:13:40.000Z,28.1
2018-06-19T05:14:40.000Z,28.1
2018-06-19T05:15:40.000Z,28.2
2018-06-19T05:17:40.000Z,28.1
2018-06-19T05:18:40.000Z,28.1
2018-06-19T05:19:40.000Z,28.1
2018-06-19T05:21:40.000Z,28.1
2018-06-19T05:23:40.000Z,28.1
2018-06-19T05:24:40.000Z,28.1
2018-06-19T05:26:40.000Z,28.1
2018-06-19T05:27:40.000Z,28.1
2018-06-19T05:28:40.000Z,28.2
2018-06-19T05:30:40.000Z,28.2
2018-06-19T05:32:25.000Z,28.1
2018-06-19T05:33:40.000Z,28.1
2018-06-19T05:35:25.000Z,28
2018-06-19T05:36:40.000Z,28.1
2018-06-19T05:37:40.000Z,28.1
2018-06-19T05:38:40.000Z,28.2
2018-06-19T05:40:40.000Z,28.2
2018-06-19T05:42:25.000Z,27.5
2018-06-19T05:43:40.000Z,26.9
2018-06-19T05:44:40.000Z,26.5
2018-06-19T05:46:40.000Z,25.8
2018-06-19T05:47:40.000Z,25.5
2018-06-19T05:49:40.000Z,25.1
2018-06-19T05:51:40.000Z,24.6
2018-06-19T05:52:40.000Z,24.4
2018-06-19T05:53:40.000Z,24.2
2018-06-19T05:55:40.000Z,24
2018-06-19T05:56:40.000Z,24
2018-06-19T05:58:40.000Z,23.8
2018-06-19T06:00:40.000Z,23.5
2018-06-19T06:02:40.000Z,23.3
2018-06-19T06:04:40.000Z,23.2
2018-06-19T06:05:40.000Z,23.2
2018-06-19T06:07:40.000Z,23.2
2018-06-19T06:08:40.000Z,23.2
2018-06-19T06:09:40.000Z,23.2
2018-06-19T06:10:40.000Z,23.2
2018-06-19T06:11:40.000Z,23.2
2018-06-19T06:13:40.000Z,23.2
2018-06-19T06:14:40.000Z,23.1
2018-06-19T06:16:25.000Z,23.1
2018-06-19T06:17:40.000Z,23
2018-06-19T06:19:40.000Z,23.1
2018-06-19T06:21:40.000Z,22.9
2018-06-19T06:23:40.000Z,22.8
2018-06-19T06:24:40.000Z,22.8
2018-06-19T06:26:40.000Z,22.8
2018-06-19T06:28:40.000Z,22.7
2018-06-19T06:29:40.000Z,22.7
2018-06-19T06:31:40.000Z,22.7
2018-06-19T06:33:40.000Z,22.7
2018-06-19T06:34:40.000Z,22.7
2018-06-19T06:36:40.000Z,22.8
2018-06-19T06:37:40.000Z,22.9
2018-06-19T06:38:40.000Z,23
2018-06-19T06:40:40.000Z,23.1
2018-06-19T06:41:40.000Z,23.1
2018-06-19T06:43:40.000Z,23.1
2018-06-19T06:44:40.000Z,23
2018-06-19T06:46:40.000Z,23.1
2018-06-19T06:47:40.000Z,23.1
2018-06-19T06:48:40.000Z,23.1
2018-06-19T06:49:40.000Z,23.1
2018-06-19T06:51:40.000Z,23.1
2018-06-19T06:53:40.000Z,23.1
2018-06-19T06:54:40.000Z,23.1
2018-06-19T06:56:40.000Z,23.2
2018-06-19T06:58:40.000Z,23.2
2018-06-19T07:00:40.000Z,23.2
2018-06-19T07:02:40.000Z,23.4
2018-06-19T07:04:40.000Z,23.5
2018-06-19T07:06:25.000Z,23.4
2018-06-19T07:07:40.000Z,23.3
2018-06-19T07:09:40.000Z,23.3
2018-06-19T07:10:40.000Z,23.3
2018-06-19T07:12:40.000Z,23.4
2018-06-19T07:13:40.000Z,23.4
2018-06-19T07:15:41.000Z,23.6
2018-06-19T07:17:41.000Z,23.7
2018-06-19T07:18:41.000Z,23.7
2018-06-19T07:19:41.000Z,23.6
2018-06-19T07:21:41.000Z,23.6
2018-06-19T07:23:41.000Z,23.6
2018-06-19T07:25:41.000Z,23.5
2018-06-19T07:26:41.000Z,23.5
2018-06-19T07:28:25.000Z,23.5
2018-06-19T07:29:41.000Z,23.5
2018-06-19T07:31:41.000Z,23.6
2018-06-19T07:33:41.000Z,23.7
2018-06-19T07:34:41.000Z,23.7
2018-06-19T07:36:25.000Z,23.9
2018-06-19T07:37:41.000Z,23.9
2018-06-19T07:38:41.000Z,23.9
2018-06-19T07:40:41.000Z,23.8
2018-06-19T07:42:41.000Z,23.7
2018-06-19T07:44:25.000Z,23.7
2018-06-19T07:45:41.000Z,23.7
2018-06-19T07:46:41.000Z,23.7
2018-06-19T07:48:25.000Z,23.7
2018-06-19T07:49:41.000Z,23.6
2018-06-19T07:51:41.000Z,23.6
2018-06-19T07:53:41.000Z,23.5
2018-06-19T07:55:41.000Z,23.6
2018-06-19T07:57:41.000Z,24
2018-06-19T07:58:41.000Z,24.2
2018-06-19T07:59:41.000Z,24.4
2018-06-19T08:01:41.000Z,24.9
2018-06-19T08:02:41.000Z,25
2018-06-19T08:04:41.000Z,25.3
2018-06-19T08:06:41.000Z,25.4
2018-06-19T08:07:41.000Z,25.5
2018-06-19T08:08:41.000Z,25.6
2018-06-19T08:09:41.000Z,25.8
2018-06-19T08:10:41.000Z,25.9
2018-06-19T08:11:41.000Z,26
2018-06-19T08:12:41.000Z,26.1
2018-06-19T08:13:41.000Z,26.2
2018-06-19T08:14:41.000Z,26.3
2018-06-19T08:16:41.000Z,26.4
2018-06-19T08:18:25.000Z,26.4
2018-06-19T08:19:40.000Z,26.3
2018-06-19T08:20:40.000Z,26.4
2018-06-19T08:22:40.000Z,26.4
2018-06-19T08:23:40.000Z,26.4
2018-06-19T08:25:40.000Z,26.5
2018-06-19T08:26:40.000Z,26.5
2018-06-19T08:28:40.000Z,26.6
2018-06-19T08:29:40.000Z,26.5
2018-06-19T08:31:40.000Z,26.5
2018-06-19T08:33:40.000Z,26.5
2018-06-19T08:34:40.000Z,26.5
2018-06-19T08:35:40.000Z,26.6
2018-06-19T08:37:40.000Z,26.6
2018-06-19T08:38:40.000Z,26.7
2018-06-19T08:40:40.000Z,26.8
2018-06-19T08:41:40.000Z,26.8
2018-06-19T08:43:40.000Z,26.9
2018-06-19T08:45:40.000Z,26.8
2018-06-19T08:47:40.000Z,26.8
2018-06-19T08:49:40.000Z,26.7
2018-06-19T08:51:40.000Z,26.7
2018-06-19T08:52:40.000Z,26.7
2018-06-19T08:54:40.000Z,26.7
2018-06-19T08:55:40.000Z,26.8
2018-06-19T08:56:40.000Z,26.8
2018-06-19T08:58:40.000Z,26.8
2018-06-19T08:59:40.000Z,26.9
2018-06-19T09:01:40.000Z,26.9
2018-06-19T09:02:40.000Z,26.9
2018-06-19T09:04:40.000Z,26.9
2018-06-19T09:06:40.000Z,27
2018-06-19T09:07:40.000Z,27
2018-06-19T09:09:40.000Z,27
2018-06-19T09:11:40.000Z,26.9
2018-06-19T09:13:40.000Z,26.9
2018-06-19T09:14:40.000Z,26.9
2018-06-19T09:15:40.000Z,26.9
2018-06-19T09:17:40.000Z,27
2018-06-19T09:21:26.000Z,26.5
2018-06-19T09:23:26.000Z,26.5
2018-06-19T09:24:26.000Z,26.5
2018-06-19T09:25:26.000Z,26.6
2018-06-19T09:26:26.000Z,26.7
2018-06-19T09:28:26.000Z,26.8
2018-06-19T09:30:26.000Z,26.9
2018-06-19T09:32:26.000Z,26.8
2018-06-19T09:33:26.000Z,26.8
2018-06-19T09:35:26.000Z,26.8
2018-06-19T09:37:26.000Z,26.9
2018-06-19T09:39:26.000Z,26.9
2018-06-19T09:40:26.000Z,27
2018-06-19T09:42:26.000Z,27
2018-06-19T09:44:11.000Z,27
2018-06-19T09:45:26.000Z,27
2018-06-19T09:47:26.000Z,26.9
2018-06-19T09:49:26.000Z,26.9
2018-06-19T09:51:26.000Z,26.9
2018-06-19T09:52:26.000Z,26.9
2018-06-19T09:53:26.000Z,27
2018-06-19T09:55:26.000Z,27.1
2018-06-19T09:57:26.000Z,27.2
2018-06-19T09:58:26.000Z,27.2
2018-06-19T10:00:26.000Z,27.2
2018-06-19T10:01:26.000Z,27.2
2018-06-19T10:03:26.000Z,27.3
2018-06-19T10:05:26.000Z,27.4
2018-06-19T10:06:26.000Z,27.5
2018-06-19T10:08:26.000Z,27.5
2018-06-19T10:09:26.000Z,27.5
2018-06-19T10:11:26.000Z,27.4
2018-06-19T10:13:26.000Z,27.4
2018-06-19T10:14:26.000Z,27.4
2018-06-19T10:16:26.000Z,27.5
2018-06-19T10:18:26.000Z,27.5
2018-06-19T10:20:26.000Z,27.6
2018-06-19T10:22:26.000Z,27.7
2018-06-19T10:23:26.000Z,27.7
2018-06-19T10:25:26.000Z,27.9
2018-06-19T10:26:26.000Z,27.9
2018-06-19T10:28:26.000Z,28
2018-06-19T10:29:26.000Z,28.1
2018-06-19T10:31:26.000Z,28.2
2018-06-19T10:33:26.000Z,28.3
2018-06-19T10:34:26.000Z,28.3
2018-06-19T10:35:26.000Z,28.4
2018-06-19T10:36:26.000Z,28.4
2018-06-19T10:37:26.000Z,28.4
2018-06-19T10:39:26.000Z,28.5
2018-06-19T10:40:26.000Z,28.5
2018-06-19T10:42:26.000Z,28.4
2018-06-19T10:43:26.000Z,28.3
2018-06-19T10:44:26.000Z,28.4
2018-06-19T10:46:26.000Z,28.4
2018-06-19T10:48:11.000Z,28.3
2018-06-19T10:49:26.000Z,28.3
2018-06-19T10:51:26.000Z,28.1
2018-06-19T10:53:26.000Z,28.1
2018-06-19T10:54:26.000Z,28.1
2018-06-19T10:55:26.000Z,28.1
2018-06-19T10:57:26.000Z,28.1
2018-06-19T10:59:26.000Z,28.1
2018-06-19T11:01:26.000Z,28
2018-06-19T11:02:26.000Z,28
2018-06-19T11:04:26.000Z,28.1
2018-06-19T11:06:26.000Z,28.1
2018-06-19T11:07:26.000Z,28.2
2018-06-19T11:08:26.000Z,28.3
2018-06-19T11:10:26.000Z,28.2
2018-06-19T11:12:26.000Z,28.2
2018-06-19T11:14:11.000Z,28.2
2018-06-19T11:15:26.000Z,28.1
2018-06-19T11:17:26.000Z,28.1
2018-06-19T11:19:26.000Z,28.2
2018-06-19T11:21:26.000Z,28.3
2018-06-19T11:22:26.000Z,28.3
2018-06-19T11:23:26.000Z,28.4
2018-06-19T11:24:26.000Z,28.5
2018-06-19T11:26:26.000Z,28.6
2018-06-19T11:28:26.000Z,28.6
2018-06-19T11:29:26.000Z,28.6
2018-06-19T11:30:26.000Z,28.7
2018-06-19T11:31:26.000Z,28.7
2018-06-19T11:32:26.000Z,28.8
2018-06-19T11:34:26.000Z,28.8
2018-06-19T11:36:26.000Z,28.8
2018-06-19T11:38:26.000Z,28.7
2018-06-19T11:39:26.000Z,28.7
2018-06-19T11:40:26.000Z,28.7
2018-06-19T11:41:26.000Z,28.7
2018-06-19T11:43:26.000Z,28.8
2018-06-19T11:45:26.000Z,28.8
2018-06-19T11:46:26.000Z,28.8
2018-06-19T11:47:26.000Z,28.8
2018-06-19T11:49:26.000Z,29
2018-06-19T11:51:26.000Z,29.1
2018-06-19T11:52:26.000Z,29.2
2018-06-19T11:53:26.000Z,29.2
2018-06-19T11:55:26.000Z,29.4
2018-06-19T11:56:26.000Z,29.3
2018-06-19T11:58:26.000Z,29.3
2018-06-19T12:00:26.000Z,29.2
2018-06-19T12:01:26.000Z,29.2
2018-06-19T12:03:26.000Z,29.3
2018-06-19T12:04:26.000Z,29.4
2018-06-19T12:05:26.000Z,29.4
2018-06-19T12:06:26.000Z,29.5
2018-06-19T12:08:26.000Z,29.6
2018-06-19T12:10:26.000Z,29.6
2018-06-19T12:12:26.000Z,29.6
2018-06-19T12:13:26.000Z,29.6
2018-06-19T12:15:26.000Z,29.8
2018-06-19T12:17:26.000Z,29.9
2018-06-19T12:19:26.000Z,29.9
2018-06-19T12:20:26.000Z,30
2018-06-19T12:22:26.000Z,30.2
2018-06-19T12:23:26.000Z,30.3
2018-06-19T12:25:26.000Z,30.5
2018-06-19T12:27:26.000Z,30.5
2018-06-19T12:28:26.000Z,30.6
2018-06-19T12:30:11.000Z,30.6
2018-06-19T12:31:26.000Z,30.6
2018-06-19T12:33:26.000Z,30.7
2018-06-19T12:35:26.000Z,30.8
2018-06-19T12:36:26.000Z,30.8
2018-06-19T12:38:26.000Z,30.9
2018-06-19T12:39:26.000Z,30.9
2018-06-19T12:40:26.000Z,31
2018-06-19T12:42:26.000Z,31
2018-06-19T12:44:26.000Z,31
2018-06-19T12:45:26.000Z,31
2018-06-19T12:47:26.000Z,31.1
2018-06-19T12:48:26.000Z,31.2
2018-06-19T12:50:26.000Z,31.2
2018-06-19T12:51:26.000Z,31.2
2018-06-19T12:52:26.000Z,31.2
2018-06-19T12:53:26.000Z,31.2
2018-06-19T12:55:26.000Z,31.2
2018-06-19T12:57:26.000Z,31
2018-06-19T12:58:26.000Z,30.9
2018-06-19T13:00:26.000Z,30.9
2018-06-19T13:01:26.000Z,30.9
2018-06-19T13:03:11.000Z,30.9
2018-06-19T13:04:26.000Z,30.8
2018-06-19T13:06:26.000Z,30.7
2018-06-19T13:08:26.000Z,30.6
2018-06-19T13:09:26.000Z,30.6
2018-06-19T13:52:30.000Z,27.6
2018-06-19T13:54:16.000Z,27.8
2018-06-19T13:56:00.000Z,28
2018-06-19T13:57:16.000Z,28.2
2018-06-19T13:58:16.000Z,28.4
2018-06-19T13:59:16.000Z,28.6
2018-06-19T14:00:16.000Z,28.7
2018-06-19T14:01:16.000Z,28.9
2018-06-19T14:03:16.000Z,29.1
2018-06-19T14:05:16.000Z,29.2
2018-06-19T14:07:16.000Z,29.2
2018-06-19T14:09:16.000Z,29.2
2018-06-19T14:10:16.000Z,29.2
2018-06-19T14:11:16.000Z,29.2
2018-06-19T14:13:16.000Z,29.3
2018-06-19T14:14:16.000Z,29.3
2018-06-19T14:16:16.000Z,29.4
2018-06-19T14:17:16.000Z,29.4
2018-06-19T14:19:16.000Z,29.4
2018-06-19T14:21:16.000Z,29.5
2018-06-19T14:22:16.000Z,29.5
2018-06-19T14:24:16.000Z,29.5
2018-06-19T14:25:16.000Z,29.5
2018-06-19T14:27:16.000Z,29.6
2018-06-19T14:28:16.000Z,29.6
2018-06-19T14:30:16.000Z,29.6
2018-06-19T14:32:16.000Z,29.6
2018-06-19T14:33:16.000Z,29.6
2018-06-19T14:35:16.000Z,29.6
2018-06-19T14:37:00.000Z,29.6
2018-06-19T14:38:16.000Z,29.6
2018-06-19T14:39:16.000Z,29.5
2018-06-19T14:40:16.000Z,29.6
2018-06-19T14:41:16.000Z,29.6
2018-06-19T14:42:16.000Z,29.6
2018-06-19T14:43:16.000Z,29.6
2018-06-19T14:45:16.000Z,29.7
2018-06-19T14:46:16.000Z,29.7
2018-06-19T14:48:16.000Z,29.7
2018-06-19T14:49:16.000Z,29.7
2018-06-19T14:51:16.000Z,29.6
2018-06-19T14:53:00.000Z,29.6
2018-06-19T14:54:16.000Z,29.5
2018-06-19T14:56:16.000Z,29.6
2018-06-19T14:58:16.000Z,29.7
2018-06-19T15:00:16.000Z,29.7
2018-06-19T15:02:16.000Z,29.8
2018-06-19T15:03:16.000Z,29.8
2018-06-19T15:05:00.000Z,30
2018-06-19T15:06:16.000Z,30
2018-06-19T15:07:16.000Z,30.1
2018-06-19T15:09:16.000Z,30.2
2018-06-19T15:10:16.000Z,30.3
2018-06-19T15:11:16.000Z,30.4
2018-06-19T15:13:16.000Z,30.5
2018-06-19T15:15:00.000Z,30.5
2018-06-19T15:16:16.000Z,30.5
2018-06-19T15:17:16.000Z,30.5
2018-06-19T15:19:16.000Z,30.5
2018-06-19T15:20:16.000Z,30.5
2018-06-19T15:22:00.000Z,30.6
2018-06-19T15:23:16.000Z,30.6
2018-06-19T15:25:16.000Z,30.6
2018-06-19T15:27:00.000Z,30.6
2018-06-19T15:28:16.000Z,30.5
2018-06-19T15:29:16.000Z,30.6
2018-06-19T15:30:16.000Z,30.6
2018-06-19T15:32:16.000Z,30.7
2018-06-19T15:33:16.000Z,30.7
2018-06-19T15:35:16.000Z,30.8
2018-06-19T15:36:16.000Z,30.8
2018-06-19T15:38:16.000Z,30.7
2018-06-19T15:40:16.000Z,30.7
2018-06-19T15:42:16.000Z,30.6
2018-06-19T15:43:16.000Z,30.6
2018-06-19T15:44:16.000Z,30.6
2018-06-19T15:45:16.000Z,30.6
2018-06-19T15:47:16.000Z,30.7
2018-06-19T15:48:16.000Z,30.7
2018-06-19T15:49:16.000Z,30.8
2018-06-19T15:51:16.000Z,30.8
2018-06-19T15:52:16.000Z,30.8
2018-06-19T15:54:16.000Z,30.9
2018-06-19T15:56:16.000Z,30.9
2018-06-19T15:57:16.000Z,30.8
2018-06-19T15:58:16.000Z,30.9
2018-06-19T16:00:16.000Z,30.9
2018-06-19T16:02:16.000Z,30.9
2018-06-19T16:03:16.000Z,30.9
2018-06-19T16:05:16.000Z,30.8
2018-06-19T16:06:16.000Z,30.8
2018-06-19T16:08:16.000Z,30.8
2018-06-19T16:10:16.000Z,30.8
2018-06-19T16:11:16.000Z,30.8
2018-06-19T16:13:01.000Z,30.8
2018-06-19T16:14:16.000Z,30.8
2018-06-19T16:16:16.000Z,30.7
2018-06-19T16:17:16.000Z,30.7
2018-06-19T16:19:16.000Z,30.7
2018-06-19T16:20:16.000Z,30.8
2018-06-19T16:22:16.000Z,30.8
2018-06-19T16:23:16.000Z,30.8
2018-06-19T16:25:01.000Z,30.8
2018-06-19T16:26:16.000Z,30.8
2018-06-19T16:28:16.000Z,30.8
2018-06-19T16:29:16.000Z,30.8
2018-06-19T16:31:16.000Z,30.8
2018-06-19T16:32:16.000Z,30.8
2018-06-19T16:34:16.000Z,30.8
2018-06-19T16:35:16.000Z,30.8
2018-06-19T16:37:16.000Z,30.8
2018-06-19T16:39:16.000Z,30.7
2018-06-19T16:40:16.000Z,30.7
2018-06-19T16:42:16.000Z,30.7
2018-06-19T16:44:16.000Z,30.6
2018-06-19T16:45:16.000Z,30.6
2018-06-19T16:47:16.000Z,30.6
2018-06-19T16:49:16.000Z,30.6
2018-06-19T16:51:01.000Z,30.6
2018-06-19T16:52:16.000Z,30.6
2018-06-19T16:53:16.000Z,30.6
2018-06-19T16:54:16.000Z,30.6
2018-06-19T16:56:16.000Z,30.7
2018-06-19T16:57:16.000Z,30.7
2018-06-19T16:59:16.000Z,30.7
2018-06-19T17:01:16.000Z,30.6
2018-06-19T17:02:16.000Z,30.6
2018-06-19T17:04:16.000Z,30.6
2018-06-19T17:05:16.000Z,30.7
2018-06-19T17:07:16.000Z,30.7
2018-06-19T17:09:16.000Z,30.7
2018-06-19T17:10:16.000Z,30.7
2018-06-19T17:11:16.000Z,30.8
2018-06-19T17:13:16.000Z,30.8
2018-06-19T17:14:16.000Z,30.8
2018-06-19T17:15:16.000Z,30.8
2018-06-19T17:17:16.000Z,30.9
2018-06-19T17:19:16.000Z,30.8
2018-06-19T17:20:16.000Z,30.8
2018-06-19T17:21:16.000Z,30.8
2018-06-19T17:23:16.000Z,30.9
2018-06-19T17:24:16.000Z,30.9
2018-06-19T17:25:16.000Z,30.9
2018-06-19T17:27:16.000Z,30.8
2018-06-19T17:29:16.000Z,30.7
2018-06-19T17:30:16.000Z,30.6
2018-06-19T17:31:16.000Z,30.7
2018-06-19T17:33:16.000Z,30.6
2018-06-19T17:35:16.000Z,30.6
2018-06-19T17:36:16.000Z,30.6
2018-06-19T17:38:16.000Z,30.6
2018-06-19T17:39:16.000Z,30.6
2018-06-19T17:41:16.000Z,30.6
2018-06-19T17:43:16.000Z,30.5
2018-06-19T17:44:16.000Z,30.5
2018-06-19T17:46:16.000Z,30.5
2018-06-19T17:47:16.000Z,30.5
2018-06-19T17:48:16.000Z,30.6
2018-06-19T17:50:16.000Z,30.6
2018-06-19T17:52:01.000Z,30.6
2018-06-19T17:53:16.000Z,30.5
2018-06-19T17:54:16.000Z,30.5
2018-06-19T17:56:16.000Z,30.5
2018-06-19T17:57:16.000Z,30.6
2018-06-19T17:59:01.000Z,30.6
2018-06-19T18:00:16.000Z,30.6
2018-06-19T18:01:16.000Z,30.6
2018-06-19T18:03:16.000Z,30.5
2018-06-19T18:05:16.000Z,30.5
2018-06-19T18:06:16.000Z,30.5
2018-06-19T18:08:16.000Z,30.5
2018-06-19T18:09:16.000Z,30.5
2018-06-19T18:11:16.000Z,30.5
2018-06-19T18:13:16.000Z,30.5
2018-06-19T18:14:16.000Z,30.5
2018-06-19T18:15:16.000Z,30.5
2018-06-19T18:16:16.000Z,30.5
2018-06-19T18:18:16.000Z,30.6
2018-06-19T18:19:16.000Z,30.6
2018-06-19T18:20:16.000Z,30.6
2018-06-19T18:22:16.000Z,30.6
2018-06-19T18:24:16.000Z,30.5
2018-06-19T18:25:16.000Z,30.5
2018-06-19T18:26:16.000Z,30.5
2018-06-19T18:28:16.000Z,30.5
2018-06-19T18:29:16.000Z,30.5
2018-06-19T18:30:16.000Z,30.5
2018-06-19T18:31:16.000Z,30.6
2018-06-19T18:33:16.000Z,30.6
2018-06-19T18:34:16.000Z,30.6
2018-06-19T18:35:16.000Z,30.6
2018-06-19T18:37:16.000Z,30.6
2018-06-19T18:38:16.000Z,30.6
2018-06-19T18:39:16.000Z,30.6
2018-06-19T18:41:16.000Z,30.6
2018-06-19T18:42:16.000Z,30.6
2018-06-19T18:43:16.000Z,30.6
2018-06-19T18:45:16.000Z,30.6
2018-06-19T18:47:16.000Z,30.5
2018-06-19T18:49:16.000Z,30.4
2018-06-19T18:51:16.000Z,30.3
2018-06-19T18:53:16.000Z,30.2
2018-06-19T18:54:16.000Z,30.2
2018-06-19T18:56:16.000Z,30.3
2018-06-19T18:57:16.000Z,30.3
2018-06-19T18:59:16.000Z,30.3
2018-06-19T19:00:16.000Z,30.3
2018-06-19T19:02:01.000Z,30.4
2018-06-19T19:03:16.000Z,30.3
2018-06-19T19:04:16.000Z,30.3
2018-06-19T19:09:17.000Z,29.9
2018-06-19T19:11:02.000Z,29.9
2018-06-19T19:12:02.000Z,29.9
2018-06-19T19:14:02.000Z,30
2018-06-19T19:15:02.000Z,30.1
2018-06-19T19:17:02.000Z,30.2
2018-06-19T19:19:02.000Z,30.2
2018-06-19T19:20:02.000Z,30.3
2018-06-19T19:22:02.000Z,30.3
2018-06-19T19:23:02.000Z,30.3
2018-06-19T19:24:02.000Z,30.4
2018-06-19T19:25:02.000Z,30.4
2018-06-19T19:27:02.000Z,30.5
2018-06-19T19:29:02.000Z,30.4
2018-06-19T19:30:02.000Z,30.4
2018-06-19T19:32:02.000Z,30.4
2018-06-19T19:33:02.000Z,30.4
2018-06-19T19:35:02.000Z,30.3
2018-06-19T19:36:02.000Z,30.3
2018-06-19T19:38:02.000Z,30.3
2018-06-19T19:39:02.000Z,30.3
2018-06-19T19:41:02.000Z,30.3
2018-06-19T19:43:02.000Z,30.3
2018-06-19T19:44:02.000Z,30.3
2018-06-19T19:45:02.000Z,30.3
2018-06-19T19:47:02.000Z,30.4
2018-06-19T19:49:02.000Z,30.3
2018-06-19T19:50:02.000Z,30.3
2018-06-19T19:52:02.000Z,30.4
2018-06-19T19:53:02.000Z,30.4
2018-06-19T19:55:02.000Z,30.4
2018-06-19T19:56:02.000Z,30.4
2018-06-19T19:58:02.000Z,30.4
2018-06-19T20:00:02.000Z,30.3
2018-06-19T20:02:02.000Z,30.2
2018-06-19T20:04:02.000Z,30.2
2018-06-19T20:06:02.000Z,30.1
2018-06-19T20:07:02.000Z,30.2
2018-06-19T20:08:02.000Z,30.2
2018-06-19T20:10:02.000Z,30.3
2018-06-19T20:11:02.000Z,30.3
2018-06-19T20:13:02.000Z,30.4
2018-06-19T20:15:02.000Z,30.3
2018-06-19T20:16:02.000Z,30.3
2018-06-19T20:18:02.000Z,30.3
2018-06-19T20:20:02.000Z,30.3
2018-06-19T20:21:02.000Z,30.3
2018-06-19T20:22:02.000Z,30.3
2018-06-19T20:24:02.000Z,30.3
2018-06-19T20:25:02.000Z,30.3
2018-06-19T20:26:02.000Z,30.3
2018-06-19T20:28:02.000Z,30.4
2018-06-19T20:30:02.000Z,30.4
2018-06-19T20:31:02.000Z,30.3
2018-06-19T20:32:02.000Z,30.4
2018-06-19T20:33:02.000Z,30.4
2018-06-19T20:35:02.000Z,30.3
2018-06-19T20:37:02.000Z,30.2
2018-06-19T20:39:02.000Z,30.2
2018-06-19T20:41:02.000Z,30.1
2018-06-19T20:43:02.000Z,30
2018-06-19T20:44:02.000Z,30.1
2018-06-19T20:46:02.000Z,30.1
2018-06-19T20:47:47.000Z,30.2
2018-06-19T20:49:02.000Z,30.1
2018-06-19T20:51:02.000Z,30.1
2018-06-19T20:52:02.000Z,30.2
2018-06-19T20:54:02.000Z,30.2
2018-06-19T20:56:02.000Z,30.2
2018-06-19T20:58:02.000Z,30.2
2018-06-19T21:00:02.000Z,30.2
2018-06-19T21:02:02.000Z,30.1
2018-06-19T21:04:02.000Z,30.1
2018-06-19T21:05:02.000Z,30.1
2018-06-19T21:07:02.000Z,30.1
2018-06-19T21:08:02.000Z,30.1
2018-06-19T21:10:02.000Z,30.2
2018-06-19T21:11:02.000Z,30.2
2018-06-19T21:13:02.000Z,30.2
2018-06-19T21:14:02.000Z,30.3
2018-06-19T21:16:02.000Z,30.3
2018-06-19T21:18:02.000Z,30.3
2018-06-19T21:19:47.000Z,30.3